Time;durP1;ratioP1;P1;durP2;ratioP2;P2;SDS_P1;SDS_P2;PMS_P1;PMS_P2;Temp;Humidity;BMP_temperature;BMP_pressure;BME280_temperature;BME280_humidity;BME280_pressure;Samples;Min_cycle;Max_cycle;Signal;HPM_P1;HPM_P2
2022/10/22 00:04:43;;;;;;;21.02;7.70;;;;;;;9.26;100.00;100705.94;10364217;28;20046;-81
2022/10/22 00:09:44;;;;;;;20.35;7.57;;;;;;;9.29;100.00;100703.47;10362587;28;20153;-81
2022/10/22 00:14:44;;;;;;;19.50;7.85;;;;;;;9.30;100.00;100713.09;10364425;28;20038;-82
2022/10/22 00:19:45;;;;;;;28.08;7.55;;;;;;;9.24;100.00;100723.25;10366958;28;20066;-82
2022/10/22 00:24:45;;;;;;;21.20;9.00;;;;;;;9.24;100.00;100721.53;10364747;28;20038;-81
2022/10/22 00:29:46;;;;;;;23.40;9.82;;;;;;;9.20;100.00;100735.25;10364747;28;20133;-81
2022/10/22 00:34:47;;;;;;;17.33;8.13;;;;;;;9.17;100.00;100723.75;10363490;28;20072;-80
2022/10/22 00:39:47;;;;;;;31.58;10.35;;;;;;;9.17;100.00;100715.91;10364530;28;20603;-82
2022/10/22 00:45:03;;;;;;;26.30;9.57;;;;;;;9.13;100.00;100703.53;10360396;28;20192;-81
2022/10/22 00:50:08;;;;;;;84.93;14.20;;;;;;;9.09;100.00;100712.94;10347584;28;20502;-82
2022/10/22 00:55:08;;;;;;;21.63;7.90;;;;;;;9.07;100.00;100712.84;10326982;28;20029;-82
2022/10/22 01:00:09;;;;;;;34.13;10.43;;;;;;;9.17;100.00;100711.59;10344775;28;20542;-81
2022/10/22 01:05:10;;;;;;;37.85;11.57;;;;;;;9.17;100.00;100718.53;10361308;28;20042;-82
2022/10/22 01:10:15;;;;;;;19.65;7.68;;;;;;;9.18;100.00;100718.63;10346299;28;20045;-82
2022/10/22 01:16:06;;;;;;;41.63;13.23;;;;;;;9.22;100.00;100709.22;10360443;28;20061;-82
2022/10/22 01:21:17;;;;;;;20.33;11.52;;;;;;;9.19;100.00;100711.66;10337723;28;20042;-83
2022/10/22 01:26:40;;;;;;;19.60;8.10;;;;;;;9.15;100.00;100709.72;10362644;28;20041;-82
2022/10/22 01:31:46;;;;;;;26.48;9.57;;;;;;;9.07;100.00;100706.72;10360555;28;20046;-80
2022/10/22 01:36:46;;;;;;;34.45;11.75;;;;;;;9.09;100.00;100700.75;10344192;28;20103;-82
2022/10/22 01:41:47;;;;;;;19.15;8.75;;;;;;;9.05;100.00;100701.41;10327118;28;20099;-81
2022/10/22 01:46:47;;;;;;;26.13;9.95;;;;;;;9.03;100.00;100697.84;10361057;28;20046;-81
2022/10/22 01:52:20;;;;;;;21.70;9.65;;;;;;;8.94;100.00;100693.06;10360096;28;20038;-81
2022/10/22 01:57:35;;;;;;;27.83;12.57;;;;;;;8.91;100.00;100697.19;10349071;28;20133;-81
2022/10/22 02:02:42;;;;;;;21.40;10.55;;;;;;;8.84;100.00;100700.31;10360735;28;20046;-81
2022/10/22 02:07:56;;;;;;;28.58;10.57;;;;;;;8.86;100.00;100698.69;10359536;28;20481;-82
2022/10/22 02:12:57;;;;;;;21.45;8.63;;;;;;;8.85;100.00;100695.19;10338268;28;20041;-82
2022/10/22 02:17:58;;;;;;;21.55;9.50;;;;;;;8.81;100.00;100695.84;10344478;28;20117;-81
2022/10/22 02:22:58;;;;;;;33.88;9.95;;;;;;;8.83;100.00;100694.22;10358509;28;20117;-81
2022/10/22 02:28:08;;;;;;;23.55;8.93;;;;;;;8.86;100.00;100693.47;10360002;28;20511;-83
2022/10/22 02:33:14;;;;;;;30.17;9.50;;;;;;;8.82;100.00;100701.13;10358786;28;20038;-83
2022/10/22 02:38:15;;;;;;;23.70;8.90;;;;;;;8.73;100.00;100703.25;10359417;28;20486;-83
2022/10/22 02:43:17;;;;;;;36.08;12.55;;;;;;;8.69;100.00;100706.53;10337609;28;20041;-83
2022/10/22 02:48:17;;;;;;;22.65;10.98;;;;;;;8.65;100.00;100701.97;10360419;28;20034;-82
2022/10/22 02:53:18;;;;;;;34.55;14.38;;;;;;;8.64;100.00;100703.69;10342038;28;20129;-82
2022/10/22 02:58:18;;;;;;;26.55;13.15;;;;;;;8.63;100.00;100704.50;10359265;28;20033;-82
2022/10/22 03:03:19;;;;;;;33.50;12.02;;;;;;;8.60;100.00;100708.66;10357667;28;20498;-82
2022/10/22 03:08:19;;;;;;;33.58;9.48;;;;;;;8.55;100.00;100711.03;10361420;28;20124;-82
2022/10/22 03:13:20;;;;;;;31.63;11.48;;;;;;;8.48;100.00;100714.97;10359371;28;20045;-82
2022/10/22 03:18:20;;;;;;;21.35;8.70;;;;;;;8.42;100.00;100716.38;10361711;28;20041;-83
2022/10/22 03:23:21;;;;;;;19.85;8.95;;;;;;;8.40;100.00;100718.88;10358970;28;20064;-83
2022/10/22 03:28:21;;;;;;;26.55;9.93;;;;;;;8.29;100.00;100727.81;10360574;28;20046;-83
2022/10/22 03:33:22;;;;;;;24.17;8.93;;;;;;;8.21;100.00;100738.72;10357061;28;20056;-81
2022/10/22 03:38:22;;;;;;;19.58;8.68;;;;;;;8.19;100.00;100748.19;10348276;28;20048;-80
2022/10/22 03:43:23;;;;;;;25.25;11.27;;;;;;;8.19;100.00;100753.38;10341045;28;20050;-81
2022/10/22 03:48:23;;;;;;;33.17;11.32;;;;;;;8.29;100.00;100753.91;10358876;28;20038;-80
2022/10/22 03:53:24;;;;;;;26.00;14.10;;;;;;;8.27;100.00;100746.00;10358467;28;20052;-81
2022/10/22 03:58:25;;;;;;;24.00;10.60;;;;;;;8.33;100.00;100755.84;10359720;28;20046;-81
2022/10/22 04:03:25;;;;;;;24.33;12.20;;;;;;;8.30;100.00;100763.50;10356655;28;20125;-81
2022/10/22 04:08:26;;;;;;;26.00;10.68;;;;;;;8.32;100.00;100775.84;10337141;28;20074;-81
2022/10/22 04:13:26;;;;;;;34.80;13.32;;;;;;;8.38;100.00;100778.78;10355206;28;20042;-83
2022/10/22 04:18:27;;;;;;;25.08;11.13;;;;;;;8.40;100.00;100776.25;10338447;28;20121;-85
2022/10/22 04:23:27;;;;;;;30.33;11.52;;;;;;;8.47;100.00;100778.38;10355516;28;20057;-84
2022/10/22 04:28:28;;;;;;;30.88;12.45;;;;;;;8.50;100.00;100785.53;10354539;28;20565;-83
2022/10/22 04:33:28;;;;;;;33.85;14.35;;;;;;;8.47;100.00;100787.94;10343018;28;20038;-83
2022/10/22 04:38:29;;;;;;;26.27;10.15;;;;;;;8.47;100.00;100787.94;10354689;28;20148;-84
2022/10/22 04:43:29;;;;;;;30.92;11.48;;;;;;;8.41;100.00;100785.88;10354476;28;20537;-84
2022/10/22 04:48:30;;;;;;;45.03;14.95;;;;;;;8.43;100.00;100799.00;10328002;28;20044;-83
2022/10/22 04:53:31;;;;;;;27.23;11.80;;;;;;;8.43;100.00;100794.66;10360402;28;20754;-82
2022/10/22 04:58:31;;;;;;;37.50;13.30;;;;;;;8.42;100.00;100794.59;10355876;28;20053;-84
2022/10/22 05:03:32;;;;;;;32.10;12.50;;;;;;;8.49;100.00;100804.59;10353376;28;20559;-81
2022/10/22 05:08:32;;;;;;;52.90;12.68;;;;;;;8.50;100.00;100802.06;10350964;28;20044;-80
2022/10/22 05:13:33;;;;;;;32.30;12.60;;;;;;;8.51;100.00;100803.84;10344465;28;20506;-83
2022/10/22 05:18:36;;;;;;;33.67;13.45;;;;;;;8.58;100.00;100806.78;10348376;28;20498;-83
2022/10/22 05:23:37;;;;;;;132.60;25.52;;;;;;;8.65;100.00;100812.44;10354828;28;20633;-85
2022/10/22 05:28:38;;;;;;;30.85;13.38;;;;;;;8.76;100.00;100812.13;10345468;28;20096;-83
2022/10/22 05:33:39;;;;;;;33.05;13.48;;;;;;;8.76;100.00;100810.41;10360626;28;20042;-87
2022/10/22 05:38:39;;;;;;;28.17;13.25;;;;;;;8.88;100.00;100807.56;10320293;28;20042;-84
2022/10/22 05:43:41;;;;;;;33.70;14.98;;;;;;;8.98;100.00;100805.47;10335703;28;20125;-84
2022/10/22 05:48:52;;;;;;;87.93;20.55;;;;;;;9.27;100.00;100820.03;10360383;28;20046;-84
2022/10/22 05:53:54;;;;;;;26.42;14.63;;;;;;;9.69;100.00;100817.81;10361599;28;20050;-83
2022/10/22 05:58:55;;;;;;;20.05;11.73;;;;;;;9.88;100.00;100828.31;10358871;28;20398;-85
2022/10/22 06:04:00;;;;;;;43.55;17.52;;;;;;;9.89;100.00;100832.72;10360878;28;20038;-86
2022/10/22 06:09:30;;;;;;;25.20;12.45;;;;;;;10.20;100.00;100826.38;10339338;28;20041;-87
2022/10/22 06:14:31;;;;;;;28.83;14.82;;;;;;;10.26;100.00;100827.56;10375089;28;20521;-87
2022/10/22 06:19:32;;;;;;;24.40;11.82;;;;;;;10.40;100.00;100829.97;10359470;28;20790;-85
2022/10/22 06:24:32;;;;;;;27.08;10.40;;;;;;;10.65;100.00;100846.84;10356481;28;20042;-87
2022/10/22 06:29:33;;;;;;;25.23;11.18;;;;;;;10.77;100.00;100855.28;10359537;28;20076;-85
2022/10/22 06:34:33;;;;;;;32.25;11.75;;;;;;;10.80;100.00;100865.00;10358374;28;20069;-86
2022/10/22 06:39:34;;;;;;;21.92;11.35;;;;;;;10.78;100.00;100878.00;10357609;28;20472;-90
2022/10/22 06:44:34;;;;;;;16.75;9.73;;;;;;;10.79;100.00;100892.88;10358035;28;20099;-84
2022/10/22 06:49:35;;;;;;;40.00;10.25;;;;;;;10.84;100.00;100895.75;10358238;28;20392;-83
2022/10/22 06:54:35;;;;;;;24.05;11.30;;;;;;;10.89;100.00;100904.72;10360701;28;20045;-84
2022/10/22 06:59:36;;;;;;;26.25;9.70;;;;;;;10.86;100.00;100913.31;10359265;28;20439;-85
2022/10/22 07:04:37;;;;;;;24.90;9.88;;;;;;;11.00;100.00;100921.81;10359703;28;20442;-86
2022/10/22 07:09:38;;;;;;;15.13;6.82;;;;;;;11.40;100.00;100917.50;10337289;28;20418;-83
2022/10/22 07:14:38;;;;;;;17.15;8.80;;;;;;;11.60;100.00;100934.13;10356998;28;20038;-84
2022/10/22 07:19:39;;;;;;;17.00;6.88;;;;;;;11.70;100.00;100938.03;10355467;28;20046;-86
2022/10/22 07:24:39;;;;;;;23.08;8.15;;;;;;;11.89;100.00;100949.34;10358585;28;20064;-86
2022/10/22 07:29:40;;;;;;;20.25;7.40;;;;;;;12.03;100.00;100963.97;10357610;28;20046;-83
2022/10/22 07:34:40;;;;;;;18.65;6.07;;;;;;;12.17;100.00;100966.28;10358206;28;20087;-86
2022/10/22 07:39:41;;;;;;;17.77;6.03;;;;;;;12.33;100.00;100967.88;10358774;28;20045;-86
2022/10/22 07:44:41;;;;;;;19.40;7.43;;;;;;;12.44;100.00;100976.16;10356760;28;20075;-86
2022/10/22 07:49:42;;;;;;;13.05;5.43;;;;;;;12.55;100.00;100992.38;10357773;28;20141;-86
2022/10/22 07:54:42;;;;;;;15.25;5.22;;;;;;;12.51;100.00;100986.09;10355694;28;20465;-86
2022/10/22 07:59:43;;;;;;;16.27;6.47;;;;;;;12.55;100.00;100995.88;10356676;28;20045;-84
2022/10/22 08:04:43;;;;;;;13.82;4.97;;;;;;;12.60;100.00;101002.22;10356711;28;20440;-83
2022/10/22 08:09:44;;;;;;;11.85;6.28;;;;;;;12.67;100.00;101011.28;10358870;28;20065;-82
2022/10/22 08:14:45;;;;;;;13.52;4.68;;;;;;;12.94;100.00;101010.59;10357776;28;20034;-82
2022/10/22 08:19:45;;;;;;;16.50;3.95;;;;;;;13.05;100.00;101021.53;10356422;28;20173;-83
2022/10/22 08:24:46;;;;;;;17.00;5.15;;;;;;;13.21;100.00;101018.66;10364717;28;20444;-83
2022/10/22 08:29:46;;;;;;;12.68;3.17;;;;;;;13.29;100.00;101024.25;10364087;28;20095;-83
2022/10/22 08:34:47;;;;;;;7.55;3.28;;;;;;;13.51;100.00;101033.88;10330691;28;20050;-83
2022/10/22 08:39:47;;;;;;;8.27;2.60;;;;;;;13.82;100.00;101030.59;10363704;28;20037;-81
2022/10/22 08:45:07;;;;;;;12.77;3.55;;;;;;;14.13;100.00;101042.25;10363801;28;20531;-84
2022/10/22 08:50:12;;;;;;;13.38;5.95;;;;;;;14.24;100.00;101044.44;10365897;28;20046;-83
2022/10/22 08:55:13;;;;;;;5.70;2.58;;;;;;;14.44;100.00;101049.50;10362804;28;20502;-81
2022/10/22 09:00:45;;;;;;;17.73;2.75;;;;;;;14.65;100.00;101048.44;10365236;28;20037;-80
2022/10/22 09:06:08;;;;;;;12.13;2.20;;;;;;;14.60;100.00;101057.94;10347018;28;20108;-84
2022/10/22 09:11:11;;;;;;;9.98;2.25;;;;;;;14.77;98.01;101056.81;10363145;28;20112;-82
2022/10/22 09:16:37;;;;;;;8.30;2.97;;;;;;;15.27;97.47;101071.56;10362657;28;20121;-84
2022/10/22 09:22:15;;;;;;;9.98;2.88;;;;;;;15.54;93.12;101071.53;10362109;28;20402;-84
2022/10/22 09:27:18;;;;;;;7.85;2.75;;;;;;;15.65;92.47;101073.59;10364520;28;20720;-83
2022/10/22 09:32:19;;;;;;;6.50;1.95;;;;;;;15.95;89.02;101075.38;10344168;28;20042;-81
2022/10/22 09:37:21;;;;;;;11.77;4.05;;;;;;;16.09;87.28;101083.72;10361077;28;20064;-81
2022/10/22 09:42:22;;;;;;;16.33;5.03;;;;;;;16.22;89.24;101088.47;10345621;28;20044;-80
2022/10/22 09:47:39;;;;;;;6.72;2.28;;;;;;;16.43;86.70;101101.38;10361442;28;20125;-80
2022/10/22 09:52:40;;;;;;;8.10;3.08;;;;;;;16.26;85.40;101103.56;10361002;28;20034;-81
2022/10/22 09:57:40;;;;;;;8.10;2.80;;;;;;;16.36;82.74;101095.91;10358091;28;20464;-82
2022/10/22 10:02:41;;;;;;;5.47;1.92;;;;;;;16.49;82.62;101118.25;10358329;28;20117;-80
2022/10/22 10:07:41;;;;;;;6.70;1.70;;;;;;;16.57;81.75;101130.81;10318526;28;20498;-83
2022/10/22 10:12:57;;;;;;;8.95;3.03;;;;;;;16.48;81.50;101129.66;10344692;28;20145;-80
2022/10/22 10:18:19;;;;;;;33.75;2.60;;;;;;;16.46;80.33;101127.00;10347856;28;20033;-79
2022/10/22 10:23:25;;;;;;;3.67;1.65;;;;;;;16.43;83.54;101135.72;10360200;28;20381;-78
2022/10/22 10:28:38;;;;;;;8.25;1.77;;;;;;;16.46;83.10;101140.22;10359454;28;20128;-78
2022/10/22 10:34:00;;;;;;;8.77;1.80;;;;;;;16.29;80.12;101166.13;10333033;28;20100;-78
2022/10/22 10:39:09;;;;;;;8.33;1.73;;;;;;;16.07;82.81;101159.34;10361002;28;20060;-78
2022/10/22 10:44:36;;;;;;;9.88;1.77;;;;;;;16.02;83.45;101172.38;10357881;28;20115;-83
2022/10/22 10:49:36;;;;;;;4.50;1.80;;;;;;;15.96;83.05;101175.75;10357429;28;20096;-78
2022/10/22 10:54:49;;;;;;;11.40;1.85;;;;;;;16.05;82.49;101176.88;10357654;28;20121;-79
2022/10/22 11:00:11;;;;;;;7.25;1.67;;;;;;;15.97;83.56;101174.91;10360407;28;20038;-79
2022/10/22 11:05:19;;;;;;;5.32;2.33;;;;;;;15.90;82.16;101170.28;10359938;28;20042;-79
2022/10/22 11:10:39;;;;;;;9.48;2.95;;;;;;;16.14;84.64;101179.78;10353528;28;20045;-80
2022/10/22 11:15:40;;;;;;;11.00;2.85;;;;;;;16.14;81.87;101175.38;10351473;28;20042;-81
2022/10/22 11:20:55;;;;;;;8.65;3.13;;;;;;;16.32;82.86;101176.78;10357492;28;20800;-80
2022/10/22 11:25:56;;;;;;;7.93;1.50;;;;;;;16.56;81.05;101171.31;10339474;28;20346;-83
2022/10/22 11:31:05;;;;;;;4.93;1.63;;;;;;;16.91;79.42;101166.94;10356646;28;20036;-79
2022/10/22 11:36:06;;;;;;;7.72;1.88;;;;;;;17.13;79.40;101173.69;10355175;28;20124;-79
2022/10/22 11:41:17;;;;;;;6.15;1.90;;;;;;;17.23;79.36;101164.25;10341084;28;20026;-83
2022/10/22 11:46:18;;;;;;;4.13;1.65;;;;;;;18.07;74.32;101167.09;10356163;28;20048;-82
2022/10/22 11:51:36;;;;;;;4.63;2.25;;;;;;;18.78;70.82;101163.22;10357748;28;20034;-81
2022/10/22 11:56:38;;;;;;;5.72;1.85;;;;;;;19.22;68.67;101150.75;10358243;28;20034;-82
2022/10/22 12:01:40;;;;;;;6.60;1.57;;;;;;;19.93;66.89;101149.16;10350169;28;20030;-81
2022/10/22 12:07:00;;;;;;;7.18;1.73;;;;;;;20.00;64.71;101151.91;10363071;28;20099;-83
2022/10/22 12:12:03;;;;;;;11.07;2.08;;;;;;;24.20;55.51;101145.00;10348922;28;20417;-79
2022/10/22 12:17:03;;;;;;;5.35;1.75;;;;;;;25.65;47.51;101150.22;10365700;28;20458;-81
2022/10/22 12:22:15;;;;;;;11.40;2.27;;;;;;;24.38;48.67;101148.47;10366409;28;20034;-78
2022/10/22 12:27:28;;;;;;;11.35;2.17;;;;;;;21.22;59.82;101158.56;10364131;28;20133;-80
2022/10/22 12:32:37;;;;;;;13.38;3.05;;;;;;;19.08;66.35;101156.69;10352759;28;20034;-82
2022/10/22 12:37:38;;;;;;;5.43;1.73;;;;;;;18.05;71.67;101167.09;10347503;28;20054;-82
2022/10/22 12:42:39;;;;;;;2.92;1.58;;;;;;;18.48;71.64;101160.88;10347279;28;20446;-82
2022/10/22 12:47:44;;;;;;;5.60;2.25;;;;;;;18.44;69.42;101156.38;10347226;28;20076;-82
2022/10/22 12:52:46;;;;;;;11.57;4.85;;;;;;;18.53;69.89;101156.56;10348857;28;20057;-82
2022/10/22 12:57:47;;;;;;;4.83;1.63;;;;;;;17.69;73.83;101165.38;10362080;28;20045;-82
2022/10/22 13:02:48;;;;;;;8.67;2.77;;;;;;;17.35;75.34;101161.91;10347127;28;20478;-82
2022/10/22 13:07:50;;;;;;;12.43;2.63;;;;;;;18.75;71.47;101157.84;10345317;28;20061;-82
2022/10/22 13:12:54;;;;;;;8.15;1.70;;;;;;;18.33;71.79;101161.47;10348118;28;20034;-82
2022/10/22 13:18:03;;;;;;;9.25;2.38;;;;;;;18.05;73.45;101160.88;10346722;28;20038;-82
2022/10/22 13:23:04;;;;;;;7.55;1.50;;;;;;;18.22;70.97;101163.00;10345659;28;20041;-81
2022/10/22 13:28:14;;;;;;;6.90;2.00;;;;;;;18.33;71.35;101161.47;10362891;28;20116;-83
2022/10/22 13:33:27;;;;;;;9.95;1.95;;;;;;;18.47;69.20;101151.16;10364851;28;20034;-83
2022/10/22 13:38:28;;;;;;;6.43;2.20;;;;;;;18.25;71.00;101155.09;10360651;28;20045;-83
2022/10/22 13:43:28;;;;;;;13.95;2.55;;;;;;;18.02;73.61;101145.84;10360893;28;20030;-80
2022/10/22 13:48:29;;;;;;;3.90;1.92;;;;;;;18.44;71.54;101153.75;10362884;28;20042;-81
2022/10/22 13:53:29;;;;;;;8.20;2.33;;;;;;;21.79;62.24;101141.22;10360450;28;20569;-80
2022/10/22 13:58:30;;;;;;;10.10;2.15;;;;;;;23.15;53.56;101146.97;10358724;28;20066;-80
2022/10/22 14:03:32;;;;;;;6.45;2.08;;;;;;;23.69;50.97;101148.69;10358842;28;20121;-81
2022/10/22 14:08:32;;;;;;;6.55;1.77;;;;;;;22.60;53.13;101150.47;10344751;28;20820;-80
2022/10/22 14:13:33;;;;;;;10.40;2.85;;;;;;;21.85;57.19;101151.91;10329409;28;20070;-81
2022/10/22 14:18:33;;;;;;;13.70;2.60;;;;;;;19.89;64.68;101150.00;10360228;28;20931;-80
2022/10/22 14:23:35;;;;;;;6.70;2.15;;;;;;;18.00;70.40;101151.94;10345332;28;20026;-80
2022/10/22 14:28:35;;;;;;;7.88;2.95;;;;;;;17.59;76.42;101153.66;10360821;28;20056;-80
2022/10/22 14:33:36;;;;;;;7.15;3.10;;;;;;;18.91;70.37;101147.53;10359873;28;20124;-80
2022/10/22 14:38:36;;;;;;;6.63;1.75;;;;;;;20.14;67.20;101152.97;10360186;28;20040;-80
2022/10/22 14:43:37;;;;;;;6.35;1.45;;;;;;;21.19;65.72;101149.66;10360967;28;20077;-80
2022/10/22 14:48:37;;;;;;;9.30;1.80;;;;;;;21.54;60.65;101152.59;10343087;28;20073;-80
2022/10/22 14:53:38;;;;;;;10.15;1.80;;;;;;;21.31;59.82;101141.78;10360084;28;20038;-80
2022/10/22 14:58:39;;;;;;;5.78;2.25;;;;;;;19.87;67.06;101156.16;10361690;28;20123;-81
2022/10/22 15:03:39;;;;;;;12.27;3.33;;;;;;;18.67;70.72;101159.47;10358783;28;20125;-81
2022/10/22 15:08:40;;;;;;;4.35;1.75;;;;;;;18.21;72.50;101172.72;10361275;28;25138;-81
2022/10/22 15:13:41;;;;;;;3.70;1.10;;;;;;;17.07;74.18;101178.81;10343513;28;20128;-81
2022/10/22 15:18:41;;;;;;;5.07;2.20;;;;;;;16.47;80.01;101186.00;10340834;28;20061;-82
2022/10/22 15:23:42;;;;;;;13.45;2.97;;;;;;;15.78;84.05;101191.84;10341074;28;20581;-81
2022/10/22 15:28:43;;;;;;;10.13;2.92;;;;;;;15.11;86.65;101188.78;10357437;28;20398;-81
2022/10/22 15:33:43;;;;;;;13.93;5.53;;;;;;;14.65;91.32;101190.69;10358993;28;20120;-82
2022/10/22 15:38:44;;;;;;;8.57;2.65;;;;;;;14.35;95.10;101201.91;10357597;28;20034;-81
2022/10/22 15:43:46;;;;;;;9.65;3.83;;;;;;;14.15;97.84;101204.66;10341651;28;20442;-84
2022/10/22 15:48:47;;;;;;;31.65;5.75;;;;;;;13.85;99.34;101199.09;10359509;28;20057;-81
2022/10/22 15:53:50;;;;;;;14.38;2.83;;;;;;;13.56;100.00;101193.56;10359380;28;20585;-80
2022/10/22 15:58:55;;;;;;;11.90;4.40;;;;;;;13.30;100.00;101198.59;10336799;28;20100;-80
2022/10/22 16:03:59;;;;;;;39.22;4.00;;;;;;;13.04;100.00;101195.78;10339801;28;20497;-79
2022/10/22 16:09:01;;;;;;;14.38;3.22;;;;;;;12.73;100.00;101189.19;10340888;28;20070;-79
2022/10/22 16:14:01;;;;;;;14.40;3.42;;;;;;;12.52;100.00;101194.41;10338268;28;20394;-81
2022/10/22 16:19:02;;;;;;;16.88;4.88;;;;;;;12.32;100.00;101195.28;10354660;28;20030;-84
2022/10/22 16:24:03;;;;;;;11.65;3.05;;;;;;;12.17;100.00;101192.88;10337573;28;20038;-80
2022/10/22 16:29:04;;;;;;;16.02;2.90;;;;;;;12.05;100.00;101192.28;10315975;28;20030;-79
2022/10/22 16:34:05;;;;;;;10.95;2.85;;;;;;;12.03;100.00;101201.81;10316396;28;20030;-80
2022/10/22 16:39:06;;;;;;;17.13;3.55;;;;;;;11.86;100.00;101201.88;10300436;28;20386;-80
2022/10/22 16:44:07;;;;;;;17.13;3.38;;;;;;;11.71;100.00;101199.41;10304902;28;20037;-80
2022/10/22 16:49:08;;;;;;;21.60;3.07;;;;;;;11.59;100.00;101202.34;10324160;28;20030;-80
2022/10/22 16:54:10;;;;;;;25.42;4.28;;;;;;;11.52;100.00;101207.19;10335848;28;20460;-80
2022/10/22 16:59:10;;;;;;;22.65;3.33;;;;;;;11.41;100.00;101206.69;10326270;28;20041;-80
2022/10/22 17:04:11;;;;;;;19.38;4.82;;;;;;;11.31;100.00;101218.41;10340445;28;20471;-80
2022/10/22 17:09:12;;;;;;;16.30;4.10;;;;;;;11.24;100.00;101227.69;10362768;28;20060;-82
2022/10/22 17:14:12;;;;;;;11.90;4.25;;;;;;;11.25;100.00;101231.19;10362964;28;20041;-78
2022/10/22 17:19:14;;;;;;;14.20;4.55;;;;;;;11.12;100.00;101229.69;10364892;28;20121;-80
2022/10/22 17:24:15;;;;;;;24.27;4.85;;;;;;;11.02;100.00;101231.84;10363488;28;20113;-79
2022/10/22 17:29:16;;;;;;;15.73;5.65;;;;;;;10.94;100.00;101237.47;10347053;28;20101;-78
2022/10/22 17:34:17;;;;;;;11.68;5.10;;;;;;;10.80;100.00;101231.53;10363505;28;20030;-79
2022/10/22 17:39:18;;;;;;;18.88;4.65;;;;;;;10.68;100.00;101216.06;10343679;28;20121;-79
2022/10/22 17:44:18;;;;;;;12.60;4.68;;;;;;;10.67;100.00;101236.13;10362678;28;20478;-78
2022/10/22 17:49:19;;;;;;;19.92;4.20;;;;;;;10.52;100.00;101232.69;10363827;28;20121;-79
2022/10/22 17:54:19;;;;;;;23.10;5.68;;;;;;;10.46;100.00;101245.44;10362436;28;20401;-79
2022/10/22 17:59:20;;;;;;;24.65;5.97;;;;;;;10.49;100.00;101250.84;10359711;28;20076;-79
2022/10/22 18:04:21;;;;;;;21.33;5.25;;;;;;;10.41;100.00;101245.19;10360441;28;20050;-78
2022/10/22 18:09:22;;;;;;;17.17;5.03;;;;;;;10.38;100.00;101240.66;10360725;28;20038;-77
2022/10/22 18:14:23;;;;;;;19.15;6.03;;;;;;;10.45;100.00;101252.38;10344907;28;20692;-78
2022/10/22 18:19:23;;;;;;;21.58;5.82;;;;;;;10.34;100.00;101258.72;10302476;28;20042;-78
2022/10/22 18:24:24;;;;;;;18.08;6.15;;;;;;;10.29;100.00;101254.13;10322783;28;20126;-78
2022/10/22 18:29:24;;;;;;;13.88;4.95;;;;;;;10.27;100.00;101249.63;10322748;28;20062;-78
2022/10/22 18:34:25;;;;;;;18.75;7.10;;;;;;;10.19;100.00;101248.31;10338846;28;20049;-78
2022/10/22 18:39:25;;;;;;;29.77;10.65;;;;;;;10.19;100.00;101249.19;10320983;28;20149;-79
2022/10/22 18:44:26;;;;;;;19.45;6.32;;;;;;;10.27;100.00;101258.38;10357383;28;20130;-79
2022/10/22 18:49:26;;;;;;;14.20;5.88;;;;;;;10.21;100.00;101255.41;10361649;28;20042;-80
2022/10/22 18:54:27;;;;;;;17.92;6.45;;;;;;;10.14;100.00;101261.13;10318160;28;20048;-79
2022/10/22 18:59:27;;;;;;;16.33;5.10;;;;;;;9.99;100.00;101243.75;10320407;28;20117;-79
2022/10/22 19:04:32;;;;;;;22.38;5.20;;;;;;;9.93;100.00;101240.81;10344437;28;20038;-79
2022/10/22 19:09:33;;;;;;;19.90;6.00;;;;;;;9.93;100.00;101237.31;10358843;28;20038;-79
2022/10/22 19:14:34;;;;;;;20.17;5.47;;;;;;;9.92;100.00;101235.50;10319856;28;20486;-80
2022/10/22 19:19:34;;;;;;;26.33;6.63;;;;;;;9.83;100.00;101239.41;10336639;28;20038;-80
2022/10/22 19:24:35;;;;;;;18.92;6.93;;;;;;;9.86;100.00;101240.38;10318421;28;20128;-79
2022/10/22 19:29:36;;;;;;;19.23;6.40;;;;;;;9.90;100.00;101237.13;10334630;28;20037;-80
2022/10/22 19:34:38;;;;;;;21.60;8.55;;;;;;;9.95;100.00;101241.78;10358922;28;20414;-78
2022/10/22 19:39:39;;;;;;;26.70;11.38;;;;;;;9.94;100.00;101239.09;10359267;28;20128;-78
2022/10/22 19:44:39;;;;;;;22.70;7.93;;;;;;;9.92;100.00;101233.78;10357961;28;20508;-78
2022/10/22 19:49:41;;;;;;;19.33;8.40;;;;;;;9.90;100.00;101230.16;10357409;28;20052;-78
2022/10/22 19:54:44;;;;;;;27.30;7.80;;;;;;;9.89;100.00;101222.25;10359160;28;20045;-79
2022/10/22 19:59:44;;;;;;;26.65;12.25;;;;;;;9.81;100.00;101213.97;10342058;28;20066;-78
2022/10/22 20:04:45;;;;;;;23.05;9.30;;;;;;;9.92;100.00;101225.94;10340257;28;20045;-78
2022/10/22 20:09:45;;;;;;;32.30;11.15;;;;;;;9.95;100.00;101228.72;10357622;28;20129;-78
2022/10/22 20:14:46;;;;;;;25.50;10.88;;;;;;;9.96;100.00;101232.25;10341717;28;20045;-78
2022/10/22 20:19:46;;;;;;;22.95;11.00;;;;;;;9.97;100.00;101221.84;10365111;28;20125;-78
2022/10/22 20:24:47;;;;;;;24.98;11.02;;;;;;;10.02;100.00;101218.59;10364280;28;20040;-78
2022/10/22 20:29:47;;;;;;;22.80;9.43;;;;;;;9.99;100.00;101233.31;10365168;28;20030;-79
2022/10/22 20:34:48;;;;;;;23.45;9.20;;;;;;;10.02;100.00;101226.44;10365228;28;20177;-77
2022/10/22 20:39:49;;;;;;;22.40;10.32;;;;;;;9.99;100.00;101233.31;10366361;28;20038;-77
2022/10/22 20:44:49;;;;;;;34.03;11.68;;;;;;;10.03;100.00;101236.09;10363259;28;20033;-78
2022/10/22 20:49:50;;;;;;;21.67;9.07;;;;;;;9.99;100.00;101250.72;10364803;28;20767;-78
2022/10/22 20:54:50;;;;;;;39.72;12.45;;;;;;;9.98;100.00;101243.69;10347052;28;20041;-78
2022/10/22 20:59:53;;;;;;;40.20;14.43;;;;;;;9.95;100.00;101239.19;10363698;28;20068;-78
2022/10/22 21:04:54;;;;;;;23.02;9.82;;;;;;;9.92;100.00;101241.63;10364227;28;20034;-78
2022/10/22 21:09:54;;;;;;;24.48;10.02;;;;;;;9.92;100.00;101241.63;10362600;28;20034;-79
2022/10/22 21:14:55;;;;;;;28.48;11.18;;;;;;;9.90;100.00;101242.34;10364918;28;20084;-78
2022/10/22 21:19:55;;;;;;;27.42;9.27;;;;;;;9.92;100.00;101240.72;10364504;28;20449;-78
2022/10/22 21:24:56;;;;;;;31.58;10.18;;;;;;;9.91;100.00;101241.53;10364486;28;20034;-78
2022/10/22 21:29:56;;;;;;;30.15;10.43;;;;;;;9.87;100.00;101244.81;10363593;28;20111;-78
2022/10/22 21:34:57;;;;;;;16.27;7.65;;;;;;;9.88;100.00;101237.03;10363425;28;20096;-78
2022/10/22 21:39:57;;;;;;;20.63;10.55;;;;;;;9.85;100.00;101226.41;10364418;28;20037;-78
2022/10/22 21:44:58;;;;;;;28.90;10.35;;;;;;;9.89;100.00;101240.56;10345447;28;20042;-78
2022/10/22 21:49:58;;;;;;;23.98;9.82;;;;;;;9.84;100.00;101242.91;10361366;28;20080;-78
2022/10/22 21:54:59;;;;;;;17.20;9.18;;;;;;;9.82;100.00;101245.44;10363257;28;20107;-78
2022/10/22 21:59:59;;;;;;;23.77;10.93;;;;;;;9.83;100.00;101239.41;10363342;28;20042;-78
2022/10/22 22:05:00;;;;;;;31.05;10.43;;;;;;;9.82;100.00;101236.69;10361127;28;20478;-78
2022/10/22 22:10:00;;;;;;;19.90;8.77;;;;;;;9.90;100.00;101232.78;10362854;28;20034;-77
2022/10/22 22:15:01;;;;;;;15.93;7.88;;;;;;;9.91;100.00;101242.44;10362216;28;20406;-78
2022/10/22 22:20:02;;;;;;;15.70;9.30;;;;;;;9.88;100.00;101244.88;10362041;28;20154;-77
2022/10/22 22:25:02;;;;;;;20.15;9.52;;;;;;;9.88;100.00;101244.88;10344659;28;20095;-78
2022/10/22 22:30:03;;;;;;;24.77;9.70;;;;;;;9.88;100.00;101229.19;10360594;28;20042;-78
2022/10/22 22:35:04;;;;;;;26.67;11.73;;;;;;;9.97;100.00;101227.09;10344265;28;20474;-78
2022/10/22 22:40:05;;;;;;;25.15;9.90;;;;;;;9.94;100.00;101232.16;10360208;28;20128;-79
2022/10/22 22:45:06;;;;;;;27.23;12.30;;;;;;;9.98;100.00;101222.78;10360349;28;20038;-78
2022/10/22 22:50:07;;;;;;;21.25;9.23;;;;;;;9.99;100.00;101219.34;10342742;28;20045;-78
2022/10/22 22:55:08;;;;;;;26.70;12.43;;;;;;;9.96;100.00;101211.34;10361078;28;20386;-78